createdAt,value
2018-12-20T00:02:10.796Z,22.10
2018-12-20T00:04:37.913Z,22.10
2018-12-20T00:07:04.945Z,22.10
2018-12-20T00:09:31.914Z,22.10
2018-12-20T00:11:58.748Z,22.10
2018-12-20T00:14:29.906Z,22.10
2018-12-20T00:16:54.766Z,22.10
2018-12-20T00:19:21.815Z,22.10
2018-12-20T00:21:48.863Z,22.10
2018-12-20T00:24:15.760Z,22.10
2018-12-20T00:26:43.086Z,22.10
2018-12-20T00:29:10.400Z,22.10
2018-12-20T00:31:37.301Z,22.10
2018-12-20T00:34:04.241Z,22.10
2018-12-20T00:36:31.299Z,22.10
2018-12-20T00:38:58.417Z,22.10
2018-12-20T00:41:25.452Z,22.10
2018-12-20T00:43:52.546Z,22.10
2018-12-20T00:46:19.596Z,22.10
2018-12-20T00:48:46.770Z,22.10
2018-12-20T00:51:13.837Z,22.10
2018-12-20T00:53:40.754Z,22.10
2018-12-20T00:56:07.745Z,22.10
2018-12-20T00:58:34.941Z,22.10
2018-12-20T01:01:01.884Z,22.10
2018-12-20T01:03:29.840Z,22.10
2018-12-20T01:05:56.726Z,22.10
2018-12-20T01:08:23.741Z,22.10
2018-12-20T01:10:50.763Z,22.10
2018-12-20T01:13:20.114Z,22.10
2018-12-20T01:15:47.063Z,22.10
2018-12-20T01:18:14.216Z,22.10
2018-12-20T01:20:41.468Z,22.10
2018-12-20T01:23:08.848Z,22.10
2018-12-20T01:25:35.885Z,22.10
2018-12-20T01:28:02.832Z,22.10
2018-12-20T01:30:30.219Z,22.10
2018-12-20T01:32:57.377Z,22.10
2018-12-20T01:35:24.636Z,22.10
2018-12-20T01:37:51.726Z,22.10
2018-12-20T01:40:18.850Z,22.10
2018-12-20T01:42:45.874Z,22.10
2018-12-20T01:45:12.901Z,22.10
2018-12-20T01:47:39.932Z,22.10
2018-12-20T01:50:07.132Z,22.10
2018-12-20T01:52:34.082Z,22.10
2018-12-20T01:55:01.094Z,22.10
2018-12-20T01:57:28.133Z,22.10
2018-12-20T01:59:55.262Z,22.10
2018-12-20T02:02:22.338Z,22.10
2018-12-20T02:04:50.759Z,22.10
2018-12-20T02:07:17.885Z,22.10
2018-12-20T02:09:45.272Z,22.10
2018-12-20T02:12:12.468Z,22.10
2018-12-20T02:14:39.539Z,22.10
2018-12-20T02:19:46.369Z,22.10
2018-12-20T02:22:13.416Z,22.10
2018-12-20T02:27:17.194Z,22.10
2018-12-20T02:32:55.764Z,22.10
2018-12-20T02:35:26.406Z,22.10
2018-12-20T02:40:46.057Z,22.10
2018-12-20T02:43:13.019Z,22.10
2018-12-20T02:45:47.810Z,22.10
2018-12-20T02:48:20.506Z,22.10
2018-12-20T02:50:48.905Z,22.10
2018-12-20T03:14:13.911Z,22.10
2018-12-20T03:16:41.228Z,22.10
2018-12-20T03:30:26.380Z,22.10
2018-12-20T03:35:48.952Z,22.10
2018-12-20T03:38:15.989Z,22.10
2018-12-20T03:40:45.449Z,22.10
2018-12-20T03:43:17.548Z,22.10
2018-12-20T03:45:45.286Z,22.10
2018-12-20T03:48:18.090Z,22.10
2018-12-20T03:50:46.279Z,22.10
2018-12-20T03:53:13.536Z,22.10
2018-12-20T03:55:40.734Z,22.10
2018-12-20T03:58:08.242Z,22.10
2018-12-20T04:00:37.434Z,22.10
2018-12-20T04:03:04.395Z,22.10
2018-12-20T04:05:31.544Z,22.10
2018-12-20T04:07:58.891Z,22.10
2018-12-20T04:10:35.080Z,22.10
2018-12-20T04:13:02.235Z,22.10
2018-12-20T04:15:37.625Z,22.10
2018-12-20T04:17:59.486Z,22.10
2018-12-20T04:20:27.990Z,22.10
2018-12-20T04:22:56.237Z,22.10
2018-12-20T04:25:23.268Z,22.10
2018-12-20T04:27:50.513Z,22.20
2018-12-20T04:30:17.973Z,22.10
2018-12-20T04:32:45.105Z,22.20
2018-12-20T04:35:12.496Z,22.10
2018-12-20T04:37:39.837Z,22.20
2018-12-20T04:40:06.784Z,22.20
2018-12-20T04:45:37.326Z,22.20
2018-12-20T04:48:04.418Z,22.20
2018-12-20T04:50:37.498Z,22.10
2018-12-20T04:53:05.019Z,22.10
2018-12-20T04:55:34.279Z,22.10
2018-12-20T04:58:01.330Z,22.10
2018-12-20T05:03:06.210Z,22.10
2018-12-20T05:05:33.425Z,22.10
2018-12-20T05:08:00.519Z,22.20
2018-12-20T05:10:28.062Z,22.20
2018-12-20T05:12:55.340Z,22.20
2018-12-20T05:15:22.321Z,22.20
2018-12-20T05:17:49.437Z,22.10
2018-12-20T05:20:17.676Z,22.10
2018-12-20T05:22:44.679Z,22.20
2018-12-20T05:25:11.672Z,22.10
2018-12-20T05:27:41.547Z,22.10
2018-12-20T05:30:09.134Z,22.00
2018-12-20T05:37:11.002Z,22.10
2018-12-20T05:39:38.388Z,22.10
2018-12-20T05:42:05.595Z,22.10
2018-12-20T05:44:35.236Z,22.00
2018-12-20T05:47:02.180Z,22.00
2018-12-20T05:49:29.416Z,22.00
2018-12-20T05:51:56.419Z,22.10
2018-12-20T05:54:23.466Z,22.10
2018-12-20T05:57:00.566Z,22.10
2018-12-20T05:59:28.023Z,22.10
2018-12-20T06:01:55.110Z,22.20
2018-12-20T06:04:22.029Z,22.20
2018-12-20T06:06:48.949Z,22.20
2018-12-20T06:09:16.077Z,22.20
2018-12-20T06:11:43.137Z,22.20
2018-12-20T06:14:10.242Z,22.20
2018-12-20T06:16:37.287Z,22.20
2018-12-20T06:19:04.280Z,22.30
2018-12-20T06:21:31.119Z,22.30
2018-12-20T06:23:57.962Z,22.30
2018-12-20T06:26:24.838Z,22.30
2018-12-20T06:28:51.671Z,22.30
2018-12-20T06:31:18.569Z,22.20
2018-12-20T06:33:45.402Z,22.20
2018-12-20T06:36:12.255Z,22.20
2018-12-20T06:38:39.091Z,22.20
2018-12-20T06:41:05.958Z,22.20
2018-12-20T06:43:32.789Z,22.20
2018-12-20T06:45:59.653Z,22.20
2018-12-20T06:48:26.504Z,22.20
2018-12-20T06:50:53.446Z,22.20
2018-12-20T06:53:20.284Z,22.20
2018-12-20T06:55:47.126Z,22.20
2018-12-20T06:58:13.967Z,22.20
2018-12-20T07:00:41.016Z,22.20
2018-12-20T07:03:07.882Z,22.20
2018-12-20T07:05:34.716Z,22.20
2018-12-20T07:08:01.621Z,22.30
2018-12-20T07:10:28.593Z,22.20
2018-12-20T07:12:55.439Z,22.20
2018-12-20T07:15:22.291Z,22.30
2018-12-20T07:17:49.134Z,22.20
2018-12-20T07:20:16.176Z,22.20
2018-12-20T07:22:43.024Z,22.20
2018-12-20T07:25:09.867Z,22.20
2018-12-20T07:27:36.707Z,22.20
2018-12-20T07:30:03.777Z,22.20
2018-12-20T07:32:30.598Z,22.30
2018-12-20T07:34:57.453Z,22.20
2018-12-20T07:37:24.402Z,22.20
2018-12-20T07:39:51.371Z,22.20
2018-12-20T07:42:18.179Z,22.20
2018-12-20T07:44:45.057Z,22.20
2018-12-20T07:47:12.589Z,22.20
2018-12-20T07:49:39.516Z,22.20
2018-12-20T07:52:06.361Z,22.20
2018-12-20T07:54:33.189Z,22.20
2018-12-20T07:57:00.024Z,22.20
2018-12-20T07:59:26.886Z,22.20
2018-12-20T08:01:53.729Z,22.20
2018-12-20T08:04:20.568Z,22.20
2018-12-20T08:06:47.436Z,22.20
2018-12-20T08:09:14.615Z,22.30
2018-12-20T08:11:41.450Z,22.30
2018-12-20T08:14:08.279Z,22.30
2018-12-20T08:16:35.116Z,22.30
2018-12-20T08:19:02.040Z,22.30
2018-12-20T08:21:28.874Z,22.30
2018-12-20T08:23:55.711Z,22.20
2018-12-20T08:26:22.582Z,22.30
2018-12-20T08:28:49.418Z,22.30
2018-12-20T08:31:16.294Z,22.30
2018-12-20T08:33:44.269Z,22.40
2018-12-20T08:36:11.098Z,22.40
2018-12-20T08:38:37.939Z,22.40
2018-12-20T08:41:04.933Z,22.50
2018-12-20T08:43:31.854Z,22.50
2018-12-20T08:45:58.766Z,22.60
2018-12-20T08:48:25.641Z,22.60
2018-12-20T08:50:52.624Z,22.60
2018-12-20T08:53:19.465Z,22.60
2018-12-20T08:55:46.392Z,22.60
2018-12-20T08:58:13.227Z,22.60
2018-12-20T09:00:40.329Z,22.70
2018-12-20T09:03:07.150Z,22.70
2018-12-20T09:05:33.987Z,22.70
2018-12-20T09:08:00.820Z,22.70
2018-12-20T09:10:27.789Z,22.70
2018-12-20T09:12:54.640Z,22.70
2018-12-20T09:15:21.669Z,22.60
2018-12-20T09:17:48.504Z,22.60
2018-12-20T09:20:15.382Z,22.60
2018-12-20T09:22:42.257Z,22.60
2018-12-20T09:25:09.085Z,22.60
2018-12-20T09:27:35.930Z,22.60
2018-12-20T09:30:02.936Z,22.60
2018-12-20T09:32:29.799Z,22.60
2018-12-20T09:34:56.640Z,22.50
2018-12-20T09:37:23.494Z,22.50
2018-12-20T09:39:50.504Z,22.50
2018-12-20T09:42:17.347Z,22.50
2018-12-20T09:44:44.188Z,22.50
2018-12-20T09:47:12.195Z,22.50
2018-12-20T09:49:39.317Z,22.40
2018-12-20T09:52:06.155Z,22.40
2018-12-20T09:54:33.078Z,22.40
2018-12-20T09:56:59.924Z,22.40
2018-12-20T09:59:26.947Z,22.40
2018-12-20T10:01:53.773Z,22.40
2018-12-20T10:04:20.615Z,22.40
2018-12-20T10:06:47.728Z,22.40
2018-12-20T10:09:14.866Z,22.40
2018-12-20T10:11:41.704Z,22.40
2018-12-20T10:14:08.558Z,22.40
2018-12-20T10:16:35.398Z,22.40
2018-12-20T10:19:02.270Z,22.40
2018-12-20T10:21:29.126Z,22.40
2018-12-20T10:23:55.968Z,22.40
2018-12-20T10:26:22.863Z,22.40
2018-12-20T10:28:50.671Z,22.40
2018-12-20T10:31:17.475Z,22.40
2018-12-20T10:33:44.343Z,22.40
2018-12-20T10:36:11.217Z,22.40
2018-12-20T10:38:38.064Z,22.40
2018-12-20T10:41:05.094Z,22.40
2018-12-20T10:43:31.892Z,22.40
2018-12-20T10:45:58.736Z,22.40
2018-12-20T10:48:25.569Z,22.40
2018-12-20T10:50:52.486Z,22.40
2018-12-20T10:53:19.343Z,22.40
2018-12-20T10:55:46.183Z,22.40
2018-12-20T10:58:13.117Z,22.40
2018-12-20T11:00:40.042Z,22.40
2018-12-20T11:03:06.902Z,22.40
2018-12-20T11:05:33.758Z,22.40
2018-12-20T11:08:00.608Z,22.40
2018-12-20T11:10:27.595Z,22.40
2018-12-20T11:12:54.436Z,22.40
2018-12-20T11:15:21.299Z,22.40
2018-12-20T11:17:48.127Z,22.40
2018-12-20T11:20:15.188Z,22.40
2018-12-20T11:22:42.024Z,22.40
2018-12-20T11:25:08.902Z,22.40
2018-12-20T11:27:35.747Z,22.40
2018-12-20T11:30:02.752Z,22.40
2018-12-20T11:32:29.639Z,22.40
2018-12-20T11:34:56.473Z,22.40
2018-12-20T11:37:23.324Z,22.40
2018-12-20T11:39:50.347Z,22.40
2018-12-20T11:42:17.186Z,22.50
2018-12-20T11:44:44.014Z,22.50
2018-12-20T11:47:10.875Z,22.60
2018-12-20T11:49:37.898Z,22.60
2018-12-20T11:52:04.737Z,22.70
2018-12-20T11:54:31.574Z,22.80
2018-12-20T11:56:58.513Z,22.80
2018-12-20T11:59:25.471Z,22.90
2018-12-20T12:01:52.304Z,22.90
2018-12-20T12:04:19.490Z,23.00
2018-12-20T12:06:46.350Z,23.00
2018-12-20T12:09:13.279Z,23.00
2018-12-20T12:11:40.368Z,23.00
2018-12-20T12:14:07.298Z,23.00
2018-12-20T12:16:34.203Z,22.90
2018-12-20T12:19:01.032Z,22.90
2018-12-20T12:21:27.902Z,22.90
2018-12-20T12:23:54.784Z,22.90
2018-12-20T12:26:21.646Z,22.90
2018-12-20T12:28:48.474Z,22.80
2018-12-20T12:31:15.333Z,22.70
2018-12-20T12:33:42.168Z,22.70
2018-12-20T12:36:08.989Z,22.70
2018-12-20T12:38:35.825Z,22.60
2018-12-20T12:41:02.665Z,22.60
2018-12-20T12:43:29.551Z,22.60
2018-12-20T12:45:56.436Z,22.70
2018-12-20T12:48:23.291Z,22.60
2018-12-20T12:50:50.220Z,22.60
2018-12-20T12:53:17.061Z,22.60
2018-12-20T12:55:43.938Z,22.60
2018-12-20T12:58:10.808Z,22.60
2018-12-20T13:00:37.776Z,22.60
2018-12-20T13:03:04.610Z,22.60
2018-12-20T13:05:31.452Z,22.60
2018-12-20T13:07:58.365Z,22.60
2018-12-20T13:10:25.339Z,22.60
2018-12-20T13:12:52.202Z,22.60
2018-12-20T13:15:19.054Z,22.60
2018-12-20T13:17:46.115Z,22.60
2018-12-20T13:20:13.147Z,22.60
2018-12-20T13:22:40.118Z,22.60
2018-12-20T13:25:06.944Z,22.50
2018-12-20T13:27:33.842Z,22.50
2018-12-20T13:30:00.718Z,22.50
2018-12-20T13:32:27.552Z,22.50
2018-12-20T13:34:54.388Z,22.50
2018-12-20T13:37:21.260Z,22.50
2018-12-20T13:39:48.311Z,22.50
2018-12-20T13:42:15.121Z,22.50
2018-12-20T13:44:41.965Z,22.50
2018-12-20T13:47:08.810Z,22.50
2018-12-20T13:49:35.651Z,22.50
2018-12-20T13:52:02.498Z,22.50
2018-12-20T13:54:29.344Z,22.50
2018-12-20T13:56:56.234Z,22.50
2018-12-20T13:59:23.462Z,22.50
2018-12-20T14:01:50.284Z,22.50
2018-12-20T14:04:17.122Z,22.50
2018-12-20T14:06:43.986Z,22.50
2018-12-20T14:09:11.044Z,22.50
2018-12-20T14:11:37.894Z,22.50
2018-12-20T14:14:04.740Z,22.40
2018-12-20T14:16:31.766Z,22.40
2018-12-20T14:18:58.822Z,22.40
2018-12-20T14:21:25.654Z,22.40
2018-12-20T14:23:52.483Z,22.40
2018-12-20T14:26:19.342Z,22.40
2018-12-20T14:28:46.166Z,22.40
2018-12-20T14:31:13.024Z,22.40
2018-12-20T14:33:39.889Z,22.40
2018-12-20T14:36:06.761Z,22.40
2018-12-20T14:38:33.597Z,22.40
2018-12-20T14:41:00.450Z,22.40
2018-12-20T14:43:27.304Z,22.40
2018-12-20T14:45:54.273Z,22.40
2018-12-20T14:48:21.097Z,22.40
2018-12-20T14:50:48.017Z,22.40
2018-12-20T14:53:14.873Z,22.40
2018-12-20T14:55:41.726Z,22.40
2018-12-20T14:58:08.581Z,22.40
2018-12-20T15:00:35.764Z,22.40
2018-12-20T15:03:02.590Z,22.40
2018-12-20T15:05:29.444Z,22.40
2018-12-20T15:07:56.266Z,22.40
2018-12-20T15:10:24.267Z,22.30
2018-12-20T15:12:51.085Z,22.40
2018-12-20T15:15:17.939Z,22.40
2018-12-20T15:17:44.768Z,22.30
2018-12-20T15:20:11.713Z,22.30
2018-12-20T15:22:38.560Z,22.30
2018-12-20T15:25:05.437Z,22.30
2018-12-20T15:27:32.249Z,22.30
2018-12-20T15:29:59.280Z,22.30
2018-12-20T15:32:26.428Z,22.30
2018-12-20T15:34:53.396Z,22.30
2018-12-20T15:37:20.234Z,22.30
2018-12-20T15:39:47.314Z,22.30
2018-12-20T15:42:14.337Z,22.30
2018-12-20T15:44:41.173Z,22.30
2018-12-20T15:47:08.045Z,22.30
2018-12-20T15:49:41.933Z,22.30
2018-12-20T15:52:03.908Z,22.30
2018-12-20T15:54:30.805Z,22.30
2018-12-20T15:56:57.670Z,22.30
2018-12-20T15:59:24.677Z,22.30
2018-12-20T16:01:51.517Z,22.30
2018-12-20T16:04:18.425Z,22.30
2018-12-20T16:06:45.285Z,22.30
2018-12-20T16:09:12.257Z,22.30
2018-12-20T16:11:39.114Z,22.30
2018-12-20T16:14:05.948Z,22.30
2018-12-20T16:16:32.784Z,22.30
2018-12-20T16:19:04.904Z,22.30
2018-12-20T16:21:28.663Z,22.30
2018-12-20T16:23:55.688Z,22.30
2018-12-20T16:26:22.558Z,22.30
2018-12-20T16:28:49.564Z,22.30
2018-12-20T16:31:16.628Z,22.30
2018-12-20T16:33:43.439Z,22.30
2018-12-20T16:36:10.286Z,22.30
2018-12-20T16:38:37.140Z,22.30
2018-12-20T16:41:04.001Z,22.30
2018-12-20T16:43:30.885Z,22.30
2018-12-20T16:45:57.739Z,22.30
2018-12-20T16:48:24.734Z,22.30
2018-12-20T16:50:51.786Z,22.30
2018-12-20T16:53:18.662Z,22.30
2018-12-20T16:55:45.533Z,22.30
2018-12-20T16:58:12.399Z,22.30
2018-12-20T17:00:39.334Z,22.40
2018-12-20T17:03:06.290Z,22.40
2018-12-20T17:05:33.122Z,22.40
2018-12-20T17:08:00.049Z,22.40
2018-12-20T17:10:26.939Z,22.40
2018-12-20T17:12:53.807Z,22.40
2018-12-20T17:15:20.662Z,22.40
2018-12-20T17:17:47.528Z,22.30
2018-12-20T17:20:14.488Z,22.30
2018-12-20T17:22:41.364Z,22.30
2018-12-20T17:25:08.185Z,22.30
2018-12-20T17:27:35.048Z,22.30
2018-12-20T17:30:02.083Z,22.30
2018-12-20T17:32:28.959Z,22.30
2018-12-20T17:34:55.798Z,22.30
2018-12-20T17:37:22.737Z,22.30
2018-12-20T17:39:49.650Z,22.30
2018-12-20T17:42:17.198Z,22.30
2018-12-20T17:44:44.119Z,22.30
2018-12-20T17:47:10.976Z,22.30
2018-12-20T17:49:37.835Z,22.30
2018-12-20T17:52:04.698Z,22.30
2018-12-20T17:54:31.544Z,22.30
2018-12-20T17:56:58.391Z,22.30
2018-12-20T17:59:25.414Z,22.30
2018-12-20T18:01:52.255Z,22.30
2018-12-20T18:04:19.117Z,22.30
2018-12-20T18:06:45.959Z,22.30
2018-12-20T18:09:12.991Z,22.30
2018-12-20T18:11:39.833Z,22.30
2018-12-20T18:14:06.713Z,22.30
2018-12-20T18:16:33.514Z,22.30
2018-12-20T18:19:00.556Z,22.30
2018-12-20T18:21:27.585Z,22.30
2018-12-20T18:23:54.426Z,22.40
2018-12-20T18:26:21.298Z,22.40
2018-12-20T18:28:48.125Z,22.40
2018-12-20T18:31:14.963Z,22.50
2018-12-20T18:33:41.810Z,22.60
2018-12-20T18:36:08.653Z,22.60
2018-12-20T18:38:35.497Z,22.60
2018-12-20T18:41:02.354Z,22.70
2018-12-20T18:43:29.190Z,22.70
2018-12-20T18:45:56.065Z,22.70
2018-12-20T18:48:22.920Z,22.70
2018-12-20T18:50:49.957Z,22.70
2018-12-20T18:53:16.922Z,22.70
2018-12-20T18:55:43.761Z,22.70
2018-12-20T18:58:10.602Z,22.70
2018-12-20T19:00:37.523Z,22.70
2018-12-20T19:03:04.371Z,22.80
2018-12-20T19:05:31.204Z,22.80
2018-12-20T19:07:58.050Z,22.80
2018-12-20T19:10:25.101Z,22.80
2018-12-20T19:12:52.041Z,22.80
2018-12-20T19:15:18.894Z,22.80
2018-12-20T19:17:45.733Z,22.80
2018-12-20T19:20:16.344Z,22.80
2018-12-20T19:22:41.582Z,22.80
2018-12-20T19:25:08.529Z,22.80
2018-12-20T19:27:35.394Z,22.80
2018-12-20T19:30:02.292Z,22.80
2018-12-20T19:32:29.527Z,22.80
2018-12-20T19:34:56.345Z,22.80
2018-12-20T19:37:23.232Z,22.80
2018-12-20T19:39:50.269Z,22.80
2018-12-20T19:42:19.316Z,22.80
2018-12-20T19:47:25.291Z,22.60
2018-12-20T19:49:52.197Z,22.60
2018-12-20T19:52:19.091Z,22.60
2018-12-20T19:54:48.145Z,22.60
2018-12-20T19:57:14.844Z,22.50
2018-12-20T19:59:41.852Z,22.50
2018-12-20T20:02:09.196Z,22.50
2018-12-20T20:04:36.090Z,22.50
2018-12-20T20:07:02.949Z,22.50
2018-12-20T20:09:29.998Z,22.50
2018-12-20T20:11:56.894Z,22.50
2018-12-20T20:14:23.739Z,22.50
2018-12-20T20:16:51.208Z,22.50
2018-12-20T20:19:18.432Z,22.50
2018-12-20T20:21:45.257Z,22.50
2018-12-20T20:24:12.302Z,22.50
2018-12-20T20:26:39.140Z,22.50
2018-12-20T20:29:06.008Z,22.50
2018-12-20T20:31:32.848Z,22.50
2018-12-20T20:33:59.693Z,22.40
2018-12-20T20:36:26.521Z,22.50
2018-12-20T20:39:01.760Z,22.50
2018-12-20T20:41:22.218Z,22.40
2018-12-20T20:43:49.081Z,22.40
2018-12-20T20:46:15.940Z,22.50
2018-12-20T20:48:42.864Z,22.50
2018-12-20T20:51:10.299Z,22.50
2018-12-20T20:53:37.137Z,22.50
2018-12-20T20:56:04.901Z,22.50
2018-12-20T20:58:31.950Z,22.50
2018-12-20T21:00:58.805Z,22.50
2018-12-20T21:03:25.649Z,22.50
2018-12-20T21:05:52.486Z,22.50
2018-12-20T21:08:19.369Z,22.50
2018-12-20T21:10:46.420Z,22.50
2018-12-20T21:13:13.245Z,22.50
2018-12-20T21:15:40.099Z,22.50
2018-12-20T21:18:07.026Z,22.50
2018-12-20T21:20:33.961Z,22.50
2018-12-20T21:23:00.805Z,22.50
2018-12-20T21:25:27.645Z,22.50
2018-12-20T21:27:54.490Z,22.50
2018-12-20T21:30:22.812Z,22.50
2018-12-20T21:32:49.659Z,22.50
2018-12-20T21:35:16.498Z,22.50
2018-12-20T21:37:43.335Z,22.50
2018-12-20T21:40:10.512Z,22.50
2018-12-20T21:42:37.380Z,22.50
2018-12-20T21:45:04.493Z,22.50
2018-12-20T21:47:31.585Z,22.50
2018-12-20T21:49:58.462Z,22.50
2018-12-20T21:52:25.340Z,22.50
2018-12-20T21:54:52.174Z,22.50
2018-12-20T21:57:19.032Z,22.50
2018-12-20T21:59:46.007Z,22.50
2018-12-20T22:02:12.879Z,22.50
2018-12-20T22:04:39.697Z,22.50
2018-12-20T22:07:06.531Z,22.50
2018-12-20T22:09:33.406Z,22.50
2018-12-20T22:12:00.249Z,22.50
2018-12-20T22:14:27.080Z,22.50
2018-12-20T22:16:53.926Z,22.50
2018-12-20T22:19:20.959Z,22.50
2018-12-20T22:21:47.883Z,22.50
2018-12-20T22:24:14.707Z,22.50
2018-12-20T22:26:41.550Z,22.50
2018-12-20T22:29:08.573Z,22.50
2018-12-20T22:31:35.379Z,22.50
2018-12-20T22:34:02.235Z,22.50
2018-12-20T22:36:29.080Z,22.50
2018-12-20T22:38:56.142Z,22.50
2018-12-20T22:41:22.980Z,22.50
2018-12-20T22:43:49.833Z,22.50
2018-12-20T22:46:16.674Z,22.50
2018-12-20T22:48:43.538Z,22.50
2018-12-20T22:51:10.407Z,22.50
2018-12-20T22:53:37.243Z,22.50
2018-12-20T22:56:04.087Z,22.50
2018-12-20T22:58:30.931Z,22.50
2018-12-20T23:00:57.769Z,22.50
2018-12-20T23:03:24.622Z,22.50
2018-12-20T23:05:51.451Z,22.50
2018-12-20T23:08:18.356Z,22.50
2018-12-20T23:10:45.298Z,22.50
2018-12-20T23:13:12.169Z,22.50
2018-12-20T23:15:38.983Z,22.50
2018-12-20T23:18:05.832Z,22.50
2018-12-20T23:20:32.860Z,22.60
2018-12-20T23:22:59.889Z,22.50
2018-12-20T23:25:26.722Z,22.50
2018-12-20T23:27:53.565Z,22.50
2018-12-20T23:30:20.428Z,22.50
2018-12-20T23:32:47.258Z,22.50
2018-12-20T23:35:14.092Z,22.50
2018-12-20T23:37:40.928Z,22.50
2018-12-20T23:40:07.802Z,22.50
2018-12-20T23:42:34.643Z,22.50
2018-12-20T23:45:01.488Z,22.50
2018-12-20T23:47:29.020Z,22.50
2018-12-20T23:49:55.945Z,22.50
2018-12-20T23:52:24.965Z,22.50
2018-12-20T23:54:51.772Z,22.50
2018-12-20T23:57:18.617Z,22.50
2018-12-20T23:59:45.605Z,22.50
